Home > Products > Valid Products > TAF

000
FTUS43 KARX 211843 AAA
TAFRST
TAF AMD
KRST 211843Z 2119/2218 34014G22KT P6SM BKN035
     FM212200 35011KT P6SM SCT035
     FM220300 32005KT P6SM SKC
     FM221400 26005KT P6SM SKC=



000
FTUS43 KARX 211843 AAA
TAFRST
TAF AMD
KRST 211843Z 2119/2218 34014G22KT P6SM BKN035
     FM212200 35011KT P6SM SCT035
     FM220300 32005KT P6SM SKC
     FM221400 26005KT P6SM SKC=



000
FTUS43 KARX 211722
TAFRST
TAF
KRST 211722Z 2118/2218 34014G20KT P6SM BKN028
     FM212200 35011KT P6SM SCT035
     FM220300 32005KT P6SM SKC
     FM221400 26005KT P6SM SKC=



000
FTUS43 KARX 211722
TAFLSE
TAF
KLSE 211722Z 2118/2218 33014G21KT P6SM BKN035
     FM212300 34009KT P6SM SCT040
     FM220300 VRB04KT P6SM SKC
     FM220900 VRB03KT P6SM BCFG SCT002
     FM221400 26005KT P6SM SKC=



000
FTUS43 KARX 211722
TAFLSE
TAF
KLSE 211722Z 2118/2218 33014G21KT P6SM BKN035
     FM212300 34009KT P6SM SCT040
     FM220300 VRB04KT P6SM SKC
     FM220900 VRB03KT P6SM BCFG SCT002
     FM221400 26005KT P6SM SKC=



000
FTUS43 KARX 211722
TAFRST
TAF
KRST 211722Z 2118/2218 34014G20KT P6SM BKN028
     FM212200 35011KT P6SM SCT035
     FM220300 32005KT P6SM SKC
     FM221400 26005KT P6SM SKC=



000
FTUS43 KARX 211242 AAA
TAFLSE
TAF AMD
KLSE 211242Z 2113/2212 32017G26KT P6SM BKN025
     FM211400 31015G25KT P6SM BKN016
     FM211600 34016G23KT P6SM BKN022
     FM211900 33012KT P6SM SCT030
     FM220000 33006KT P6SM SKC
     FM220900 22003KT P6SM BCFG SCT002=



000
FTUS43 KARX 211136
TAFRST
TAF
KRST 211136Z 2112/2212 32014G25KT P6SM SCT021
     FM211230 34015G25KT P6SM BKN013
     FM211600 35014G21KT P6SM BKN020
     FM211800 34014G18KT P6SM SCT030
     FM220000 35006KT P6SM SKC=



000
FTUS43 KARX 211136
TAFLSE
TAF
KLSE 211136Z 2112/2212 32019G26KT P6SM BKN029
     FM211230 31015G25KT P6SM BKN016
     FM211600 34016G23KT P6SM BKN022
     FM211900 33012KT P6SM SCT030
     FM220000 33006KT P6SM SKC
     FM220900 22003KT P6SM BCFG SCT002=



000
FTUS43 KARX 211136
TAFLSE
TAF
KLSE 211136Z 2112/2212 32019G26KT P6SM BKN029
     FM211230 31015G25KT P6SM BKN016
     FM211600 34016G23KT P6SM BKN022
     FM211900 33012KT P6SM SCT030
     FM220000 33006KT P6SM SKC
     FM220900 22003KT P6SM BCFG SCT002=



000
FTUS43 KARX 211136
TAFRST
TAF
KRST 211136Z 2112/2212 32014G25KT P6SM SCT021
     FM211230 34015G25KT P6SM BKN013
     FM211600 35014G21KT P6SM BKN020
     FM211800 34014G18KT P6SM SCT030
     FM220000 35006KT P6SM SKC=



000
FTUS43 KARX 211009 AAA
TAFRST
TAF AMD
KRST 211009Z 2110/2206 32013G23KT P6SM BKN022
     FM211500 34015G23KT P6SM BKN022
     FM211800 34014G22KT P6SM SCT030
     FM220000 35006KT P6SM SKC=



000
FTUS43 KARX 211009 AAA
TAFRST
TAF AMD
KRST 211009Z 2110/2206 32013G23KT P6SM BKN022
     FM211500 34015G23KT P6SM BKN022
     FM211800 34014G22KT P6SM SCT030
     FM220000 35006KT P6SM SKC=



000
FTUS43 KARX 210911 AAA
TAFLSE
TAF AMD
KLSE 210911Z 2109/2206 30015G26KT P6SM BKN035
     FM211000 31015G25KT P6SM BKN020
     FM211800 33012G20KT P6SM SCT030
     FM220000 34006KT P6SM SKC=



000
FTUS43 KARX 210911 AAA
TAFLSE
TAF AMD
KLSE 210911Z 2109/2206 30015G26KT P6SM BKN035
     FM211000 31015G25KT P6SM BKN020
     FM211800 33012G20KT P6SM SCT030
     FM220000 34006KT P6SM SKC=



000
FTUS43 KARX 210525
TAFLSE
TAF
KLSE 210525Z 2106/2206 32013KT P6SM SCT035
     FM210900 31012KT P6SM BKN020
     FM211800 33012G20KT P6SM SCT030
     FM220000 34006KT P6SM SKC=



000
FTUS43 KARX 210525
TAFLSE
TAF
KLSE 210525Z 2106/2206 32013KT P6SM SCT035
     FM210900 31012KT P6SM BKN020
     FM211800 33012G20KT P6SM SCT030
     FM220000 34006KT P6SM SKC=



000
FTUS43 KARX 210525
TAFRST
TAF
KRST 210525Z 2106/2206 30012KT P6SM SKC
     FM211100 32013KT P6SM BKN020
     FM211500 34015G23KT P6SM BKN020
     FM211800 34014G22KT P6SM SCT030
     FM220000 35006KT P6SM SKC=



000
FTUS43 KARX 210525
TAFRST
TAF
KRST 210525Z 2106/2206 30012KT P6SM SKC
     FM211100 32013KT P6SM BKN020
     FM211500 34015G23KT P6SM BKN020
     FM211800 34014G22KT P6SM SCT030
     FM220000 35006KT P6SM SKC=



000
FTUS43 KARX 210340 AAB
TAFLSE
TAF AMD
KLSE 210340Z 2104/2124 32013KT P6SM SCT025
      TEMPO 2104/2105 BKN025
     FM210800 30012KT P6SM BKN025
     FM211800 33012G20KT P6SM BKN035=



000
FTUS43 KARX 210340 AAB
TAFLSE
TAF AMD
KLSE 210340Z 2104/2124 32013KT P6SM SCT025
      TEMPO 2104/2105 BKN025
     FM210800 30012KT P6SM BKN025
     FM211800 33012G20KT P6SM BKN035=



000
FTUS43 KARX 210207 AAA
TAFLSE
TAF AMD
KLSE 210207Z 2102/2124 28006KT P6SM -SHRA BKN100
     FM210400 30008KT P6SM SCT100
     FM210800 30012KT P6SM BKN025
     FM211800 33012G20KT P6SM BKN035=



000
FTUS43 KARX 210207 AAA
TAFLSE
TAF AMD
KLSE 210207Z 2102/2124 28006KT P6SM -SHRA BKN100
     FM210400 30008KT P6SM SCT100
     FM210800 30012KT P6SM BKN025
     FM211800 33012G20KT P6SM BKN035=



000
FTUS43 KARX 210100 AAA
TAFRST
TAF AMD
KRST 210100Z 2101/2124 32008KT P6SM -SHRA BKN070
     FM210300 31013KT P6SM SCT050
     FM210900 31013KT P6SM BKN020
     FM211800 34014G22KT P6SM BKN030=



000
FTUS43 KARX 210100 AAA
TAFRST
TAF AMD
KRST 210100Z 2101/2124 32008KT P6SM -SHRA BKN070
     FM210300 31013KT P6SM SCT050
     FM210900 31013KT P6SM BKN020
     FM211800 34014G22KT P6SM BKN030=



000
FTUS43 KARX 202330
TAFRST
TAF
KRST 202330Z 2100/2124 29010KT P6SM -SHRA VCTS BKN050CB
      TEMPO 2100/2102 30022G38KT 2SM TSRA BKN025CB
     FM210300 31013KT P6SM SCT050
     FM210900 31013KT P6SM BKN020
     FM211800 34014G22KT P6SM BKN030=



000
FTUS43 KARX 202330
TAFRST
TAF
KRST 202330Z 2100/2124 29010KT P6SM -SHRA VCTS BKN050CB
      TEMPO 2100/2102 30022G38KT 2SM TSRA BKN025CB
     FM210300 31013KT P6SM SCT050
     FM210900 31013KT P6SM BKN020
     FM211800 34014G22KT P6SM BKN030=



000
FTUS43 KARX 202330
TAFLSE
TAF
KLSE 202330Z 2100/2124 29006KT P6SM SCT050
     FM210100 28006KT P6SM -SHRA VCTS BKN050CB
      TEMPO 2101/2103 30018G33KT 2SM TSRA BKN030CB
     FM210400 30008KT P6SM SCT050
     FM210800 30012KT P6SM BKN025
     FM211800 33012G20KT P6SM BKN035=



000
FTUS43 KARX 202330
TAFLSE
TAF
KLSE 202330Z 2100/2124 29006KT P6SM SCT050
     FM210100 28006KT P6SM -SHRA VCTS BKN050CB
      TEMPO 2101/2103 30018G33KT 2SM TSRA BKN030CB
     FM210400 30008KT P6SM SCT050
     FM210800 30012KT P6SM BKN025
     FM211800 33012G20KT P6SM BKN035=



000
FTUS43 KARX 202033 AAA
TAFLSE
TAF AMD
KLSE 202033Z 2021/2118 29010KT P6SM SCT050
     FM210100 27006KT P6SM -SHRA VCTS BKN050CB
      TEMPO 2101/2103 30018G33KT 3SM -TSRA BKN030CB
     FM210500 30008KT P6SM SCT050
     FM210800 30012KT P6SM BKN025
     FM211700 31012KT P6SM BKN050=



000
FTUS43 KARX 202033 AAA
TAFLSE
TAF AMD
KLSE 202033Z 2021/2118 29010KT P6SM SCT050
     FM210100 27006KT P6SM -SHRA VCTS BKN050CB
      TEMPO 2101/2103 30018G33KT 3SM -TSRA BKN030CB
     FM210500 30008KT P6SM SCT050
     FM210800 30012KT P6SM BKN025
     FM211700 31012KT P6SM BKN050=



000
FTUS43 KARX 202027 AAA
TAFRST
TAF AMD
KRST 202027Z 2020/2118 31013G20KT P6SM FEW030
     FM210000 29007KT P6SM -SHRA VCTS BKN050CB
      TEMPO 2100/2102 30022G38KT 2SM TSRA BKN030CB
     FM210400 32011KT P6SM SCT050
     FM210900 30013KT P6SM BKN020
     FM211600 31015KT P6SM BKN060=



000
FTUS43 KARX 202027 AAA
TAFRST
TAF AMD
KRST 202027Z 2020/2118 31013G20KT P6SM FEW030
     FM210000 29007KT P6SM -SHRA VCTS BKN050CB
      TEMPO 2100/2102 30022G38KT 2SM TSRA BKN030CB
     FM210400 32011KT P6SM SCT050
     FM210900 30013KT P6SM BKN020
     FM211600 31015KT P6SM BKN060=



000
FTUS43 KARX 201724
TAFRST
TAF
KRST 201724Z 2018/2118 31013G20KT P6SM FEW030
     FM210100 29007KT P6SM -SHRA VCTS BKN050CB
     FM210400 30012KT P6SM BKN020
     FM210900 31015KT P6SM BKN060=



000
FTUS43 KARX 201724
TAFLSE
TAF
KLSE 201724Z 2018/2118 29012KT P6SM FEW030
     FM210000 27005KT P6SM SCT250
     FM210200 27006KT P6SM -SHRA VCTS BKN050CB
     FM210500 30008KT P6SM BKN025
     FM211100 31012KT P6SM BKN025=



000
FTUS43 KARX 201724
TAFRST
TAF
KRST 201724Z 2018/2118 31013G20KT P6SM FEW030
     FM210100 29007KT P6SM -SHRA VCTS BKN050CB
     FM210400 30012KT P6SM BKN020
     FM210900 31015KT P6SM BKN060=



000
FTUS43 KARX 201724
TAFLSE
TAF
KLSE 201724Z 2018/2118 29012KT P6SM FEW030
     FM210000 27005KT P6SM SCT250
     FM210200 27006KT P6SM -SHRA VCTS BKN050CB
     FM210500 30008KT P6SM BKN025
     FM211100 31012KT P6SM BKN025=



000
FTUS43 KARX 201322 AAA
TAFLSE
TAF AMD
KLSE 201322Z 2013/2112 VRB04KT P6SM BKN080
     FM201400 24008KT P6SM -SHRA BKN060
     FM201600 29012KT P6SM SCT150
     FM210000 27005KT P6SM SCT250
     FM210200 27006KT P6SM VCSH BKN050
     FM210400 30008KT P6SM SCT050=



000
FTUS43 KARX 201322 AAA
TAFLSE
TAF AMD
KLSE 201322Z 2013/2112 VRB04KT P6SM BKN080
     FM201400 24008KT P6SM -SHRA BKN060
     FM201600 29012KT P6SM SCT150
     FM210000 27005KT P6SM SCT250
     FM210200 27006KT P6SM VCSH BKN050
     FM210400 30008KT P6SM SCT050=



000
FTUS43 KARX 201145 CCA
TAFRST
TAF COR
KRST 201145Z 2012/2112 24013G20KT P6SM VCSH BKN130
     FM201600 30012G18KT P6SM BKN150
     FM201800 31013G20KT P6SM SCT250
     FM210100 29007KT P6SM VCSH BKN050
     FM210300 29011KT P6SM SCT050=



000
FTUS43 KARX 201145 CCA
TAFRST
TAF COR
KRST 201145Z 2012/2112 24013G20KT P6SM VCSH BKN130
     FM201600 30012G18KT P6SM BKN150
     FM201800 31013G20KT P6SM SCT250
     FM210100 29007KT P6SM VCSH BKN050
     FM210300 29011KT P6SM SCT050=



000
FTUS43 KARX 201135
TAFRST
TAF
KRST 201135Z 2012/2112 24013G20KT P6SM BKN130
     FM201600 30012G18KT P6SM BKN150
     FM201800 31013G20KT P6SM SCT250
     FM210100 29007KT P6SM VCSH BKN050
     FM210300 29011KT P6SM SCT050=



000
FTUS43 KARX 201135
TAFLSE
TAF
KLSE 201135Z 2012/2112 16007KT P6SM BKN130
     FM201400 26009KT P6SM BKN150
     FM201900 29012KT P6SM SCT250
     FM210000 27005KT P6SM SCT250
     FM210200 27006KT P6SM VCSH BKN050
     FM210400 30008KT P6SM SCT050=



000
FTUS43 KARX 201135
TAFRST
TAF
KRST 201135Z 2012/2112 24013G20KT P6SM BKN130
     FM201600 30012G18KT P6SM BKN150
     FM201800 31013G20KT P6SM SCT250
     FM210100 29007KT P6SM VCSH BKN050
     FM210300 29011KT P6SM SCT050=



000
FTUS43 KARX 201135
TAFLSE
TAF
KLSE 201135Z 2012/2112 16007KT P6SM BKN130
     FM201400 26009KT P6SM BKN150
     FM201900 29012KT P6SM SCT250
     FM210000 27005KT P6SM SCT250
     FM210200 27006KT P6SM VCSH BKN050
     FM210400 30008KT P6SM SCT050=



000
FTUS43 KARX 200829 AAA
TAFLSE
TAF AMD
KLSE 200829Z 2008/2106 17016KT 4SM -RA BR SCT015 BKN080
     FM200930 19012KT P6SM BKN120
     FM201400 28011KT P6SM SCT250
     FM210000 27005KT P6SM SCT250
     FM210400 27006KT P6SM VCSH BKN050=



000
FTUS43 KARX 200829 AAA
TAFLSE
TAF AMD
KLSE 200829Z 2008/2106 17016KT 4SM -RA BR SCT015 BKN080
     FM200930 19012KT P6SM BKN120
     FM201400 28011KT P6SM SCT250
     FM210000 27005KT P6SM SCT250
     FM210400 27006KT P6SM VCSH BKN050=



000
FTUS43 KARX 200525
TAFRST
TAF
KRST 200525Z 2006/2106 20015G23KT P6SM VCTS SCT015CB BKN150
      TEMPO 2006/2007 2SM TSRA BKN015CB
     FM200700 22014KT P6SM SCT015 BKN060
     FM201200 26011KT P6SM BKN150
     FM201500 30012KT P6SM SCT250
     FM201800 31013G20KT P6SM SCT250
     FM210000 27007KT P6SM SCT250
     FM210300 27012KT P6SM VCSH BKN050=



000
FTUS43 KARX 200525
TAFLSE
TAF
KLSE 200525Z 2006/2106 20014KT P6SM VCTS SCT025CB BKN130
      TEMPO 2006/2008 3SM -TSRA BKN020CB
     FM200800 20010KT P6SM SCT015 BKN050
      TEMPO 2008/2010 5SM -SHRA BKN015
     FM201400 28011KT P6SM SCT250
     FM210000 27005KT P6SM SCT250
     FM210400 27006KT P6SM VCSH BKN050=



000
FTUS43 KARX 200525
TAFLSE
TAF
KLSE 200525Z 2006/2106 20014KT P6SM VCTS SCT025CB BKN130
      TEMPO 2006/2008 3SM -TSRA BKN020CB
     FM200800 20010KT P6SM SCT015 BKN050
      TEMPO 2008/2010 5SM -SHRA BKN015
     FM201400 28011KT P6SM SCT250
     FM210000 27005KT P6SM SCT250
     FM210400 27006KT P6SM VCSH BKN050=



000
FTUS43 KARX 200525
TAFRST
TAF
KRST 200525Z 2006/2106 20015G23KT P6SM VCTS SCT015CB BKN150
      TEMPO 2006/2007 2SM TSRA BKN015CB
     FM200700 22014KT P6SM SCT015 BKN060
     FM201200 26011KT P6SM BKN150
     FM201500 30012KT P6SM SCT250
     FM201800 31013G20KT P6SM SCT250
     FM210000 27007KT P6SM SCT250
     FM210300 27012KT P6SM VCSH BKN050=



000
FTUS43 KARX 200402 AAA
TAFRST
TAF AMD
KRST 200402Z 2004/2024 20015G23KT P6SM VCTS SCT015CB BKN150
      TEMPO 2005/2007 2SM TSRA BKN015CB
     FM200700 22014KT P6SM SCT030
     FM201100 25011KT P6SM BKN150
     FM201500 30012KT P6SM BKN150
     FM201800 31013G20KT P6SM SCT250=



000
FTUS43 KARX 200402 AAA
TAFRST
TAF AMD
KRST 200402Z 2004/2024 20015G23KT P6SM VCTS SCT015CB BKN150
      TEMPO 2005/2007 2SM TSRA BKN015CB
     FM200700 22014KT P6SM SCT030
     FM201100 25011KT P6SM BKN150
     FM201500 30012KT P6SM BKN150
     FM201800 31013G20KT P6SM SCT250=



000
FTUS43 KARX 192330
TAFLSE
TAF
KLSE 192330Z 2000/2024 18016G24KT P6SM SCT250
     FM200300 20014KT P6SM VCTS SCT035CB BKN130
     FM200800 20012KT P6SM SCT035
     FM201100 23011KT P6SM BKN120
     FM201500 26011KT P6SM BKN150
     FM201800 30011KT P6SM SCT250=



000
FTUS43 KARX 192330
TAFLSE
TAF
KLSE 192330Z 2000/2024 18016G24KT P6SM SCT250
     FM200300 20014KT P6SM VCTS SCT035CB BKN130
     FM200800 20012KT P6SM SCT035
     FM201100 23011KT P6SM BKN120
     FM201500 26011KT P6SM BKN150
     FM201800 30011KT P6SM SCT250=



000
FTUS43 KARX 192330
TAFRST
TAF
KRST 192330Z 2000/2024 19016G25KT P6SM SCT050
     FM200100 20015G23KT P6SM VCTS SCT030CB BKN150
     FM200600 22014KT P6SM SCT030
     FM201100 25011KT P6SM BKN150
     FM201500 30012KT P6SM BKN150
     FM201800 31013G20KT P6SM SCT250=



000
FTUS43 KARX 192330
TAFRST
TAF
KRST 192330Z 2000/2024 19016G25KT P6SM SCT050
     FM200100 20015G23KT P6SM VCTS SCT030CB BKN150
     FM200600 22014KT P6SM SCT030
     FM201100 25011KT P6SM BKN150
     FM201500 30012KT P6SM BKN150
     FM201800 31013G20KT P6SM SCT250=



000
FTUS43 KARX 191720
TAFRST
TAF
KRST 191720Z 1918/2018 19022G34KT P6SM SCT050
     FM192300 19017G25KT P6SM BKN050
     FM200100 21015G22KT P6SM VCTS BKN030CB
     FM200600 24011KT P6SM SCT030
     FM201400 30012KT P6SM SKC=



000
FTUS43 KARX 191720
TAFLSE
TAF
KLSE 191720Z 1918/2018 18018G28KT P6SM SCT050
     FM200000 18014G22KT P6SM BKN050
     FM200300 19012KT P6SM VCTS BKN035CB
     FM200800 24009KT P6SM SCT035
     FM201400 28010KT P6SM SKC=



000
FTUS43 KARX 191720
TAFLSE
TAF
KLSE 191720Z 1918/2018 18018G28KT P6SM SCT050
     FM200000 18014G22KT P6SM BKN050
     FM200300 19012KT P6SM VCTS BKN035CB
     FM200800 24009KT P6SM SCT035
     FM201400 28010KT P6SM SKC=



000
FTUS43 KARX 191720
TAFRST
TAF
KRST 191720Z 1918/2018 19022G34KT P6SM SCT050
     FM192300 19017G25KT P6SM BKN050
     FM200100 21015G22KT P6SM VCTS BKN030CB
     FM200600 24011KT P6SM SCT030
     FM201400 30012KT P6SM SKC=



000
FTUS43 KARX 191132
TAFRST
TAF
KRST 191132Z 1912/2012 17011KT P6SM SCT250
     FM191300 17016G26KT P6SM BKN250
     FM191800 19022G32KT P6SM SCT150 BKN250
     FM200000 19017G25KT P6SM BKN150
     FM200300 21015KT P6SM VCTS BKN030CB
     FM200800 24011KT P6SM SCT030=



000
FTUS43 KARX 191132
TAFLSE
TAF
KLSE 191132Z 1912/2012 14008KT P6SM SCT250
     FM191400 17011KT P6SM BKN250
     FM191600 18013G23KT P6SM BKN250
     FM191800 18018G28KT P6SM SCT150 BKN250
     FM200000 18014G22KT P6SM BKN150
     FM200500 19014KT P6SM VCTS BKN035CB
     FM200900 20009KT P6SM SCT035=



000
FTUS43 KARX 191132
TAFLSE
TAF
KLSE 191132Z 1912/2012 14008KT P6SM SCT250
     FM191400 17011KT P6SM BKN250
     FM191600 18013G23KT P6SM BKN250
     FM191800 18018G28KT P6SM SCT150 BKN250
     FM200000 18014G22KT P6SM BKN150
     FM200500 19014KT P6SM VCTS BKN035CB
     FM200900 20009KT P6SM SCT035=



000
FTUS43 KARX 191132
TAFRST
TAF
KRST 191132Z 1912/2012 17011KT P6SM SCT250
     FM191300 17016G26KT P6SM BKN250
     FM191800 19022G32KT P6SM SCT150 BKN250
     FM200000 19017G25KT P6SM BKN150
     FM200300 21015KT P6SM VCTS BKN030CB
     FM200800 24011KT P6SM SCT030=



000
FTUS43 KARX 190525
TAFRST
TAF
KRST 190525Z 1906/2006 17011KT P6SM SCT250
     FM191500 17016G26KT P6SM BKN250
     FM191800 19022G32KT P6SM SCT150
     FM200000 19017G25KT P6SM BKN150
     FM200300 21015KT P6SM VCTS BKN050CB=



000
FTUS43 KARX 190525
TAFRST
TAF
KRST 190525Z 1906/2006 17011KT P6SM SCT250
     FM191500 17016G26KT P6SM BKN250
     FM191800 19022G32KT P6SM SCT150
     FM200000 19017G25KT P6SM BKN150
     FM200300 21015KT P6SM VCTS BKN050CB=



000
FTUS43 KARX 190525
TAFLSE
TAF
KLSE 190525Z 1906/2006 14008KT P6SM SCT250
     FM191600 18013G23KT P6SM BKN250
     FM191800 18018G28KT P6SM SCT150
     FM200000 18014G22KT P6SM BKN150
     FM200300 19014KT P6SM BKN050=



000
FTUS43 KARX 190525
TAFLSE
TAF
KLSE 190525Z 1906/2006 14008KT P6SM SCT250
     FM191600 18013G23KT P6SM BKN250
     FM191800 18018G28KT P6SM SCT150
     FM200000 18014G22KT P6SM BKN150
     FM200300 19014KT P6SM BKN050=



000
FTUS43 KARX 182330
TAFRST
TAF
KRST 182330Z 1900/1924 16008KT P6SM SKC
     FM190700 17012KT P6SM SKC
     FM191500 17016G26KT P6SM SCT150
     FM191800 19022G32KT P6SM SCT150=



000
FTUS43 KARX 182330
TAFLSE
TAF
KLSE 182330Z 1900/1924 13006KT P6SM SKC
     FM191600 18013G23KT P6SM SCT150
     FM191800 18018G28KT P6SM SCT150=



000
FTUS43 KARX 182330
TAFLSE
TAF
KLSE 182330Z 1900/1924 13006KT P6SM SKC
     FM191600 18013G23KT P6SM SCT150
     FM191800 18018G28KT P6SM SCT150=



000
FTUS43 KARX 182330
TAFRST
TAF
KRST 182330Z 1900/1924 16008KT P6SM SKC
     FM190700 17012KT P6SM SKC
     FM191500 17016G26KT P6SM SCT150
     FM191800 19022G32KT P6SM SCT150=



    US Dept of Commerce
    National Oceanic and Atmospheric Administration
    National Weather Service
    1325 East West Highway
    Silver Spring, MD 20910
    Page Author: NWS Internet Services Team
Disclaimer
Information Quality
Credits
Glossary
Privacy Policy
Freedom of Information Act (FOIA)
About Us
Career Opportunities